EST,Max TemperatureF,Mean TemperatureF,Min TemperatureF,Max Dew PointF,MeanDew PointF,Min DewpointF,Max Humidity, Mean Humidity, Min Humidity, Max Sea Level PressureIn, Mean Sea Level PressureIn, Min Sea Level PressureIn, Max VisibilityMiles, Mean VisibilityMiles, Min VisibilityMiles, Max Wind SpeedMPH, Mean Wind SpeedMPH, Max Gust SpeedMPH,PrecipitationIn, CloudCover, Events, WindDirDegrees
2012-12-1,54,43,32,52,37,32,99,93,87,30.22,30.07,29.86,5,3,1,15,7,24,0.00,8,Rain,139
2012-12-2,54,45,36,52,46,35,97,87,79,30.08,29.93,29.83,10,6,2,17,8,24,0.00,8,Rain,270
2012-12-3,63,47,31,59,47,31,99,94,80,30.09,29.93,29.74,10,3,0,18,5,31,0.00,8,Fog-Rain,183
2012-12-4,59,47,32,56,36,20,90,68,45,30.16,29.96,29.77,10,10,7,18,11,30,0.00,1,Rain,281
2012-12-5,35,30,26,26,20,16,92,64,53,30.39,30.31,30.17,10,10,10,17,8,25,0.00,4,,340
2012-12-6,39,33,29,30,24,21,76,68,61,30.26,30.06,29.88,10,10,10,12,7,17,0.00,5,,171
2012-12-7,45,40,35,37,33,30,96,77,58,29.93,29.90,29.87,10,9,2,7,3,,0.00,6,,330
2012-12-8,37,32,27,31,28,25,95,83,68,30.15,29.99,29.88,10,8,0,12,4,,0.00,7,Snow,18
2012-12-9,33,30,27,30,27,22,96,85,72,30.17,29.97,29.66,10,6,0,16,3,24,0.00,6,Snow,90
2012-12-10,32,30,28,31,25,18,98,80,63,29.86,29.69,29.59,10,9,2,15,5,18,0.00,8,,330
2012-12-11,34,25,17,28,21,15,93,77,56,30.01,29.92,29.84,10,8,2,14,4,21,0.00,7,Snow,201
2012-12-12,42,36,31,30,25,21,92,67,51,30.24,30.17,30.02,10,9,2,14,6,21,0.00,5,Snow,214
2012-12-13,46,38,29,28,25,21,92,64,38,30.24,30.15,30.04,10,10,10,18,8,26,0.00,0,,189
2012-12-14,43,34,25,33,27,24,99,84,51,30.21,30.15,30.09,10,7,0,6,1,,0.00,1,Fog,131
2012-12-15,41,36,32,39,34,30,97,92,76,30.12,29.88,29.56,7,4,2,12,5,17,0.00,7,Rain-Snow,122
2012-12-16,46,43,39,46,42,38,97,94,88,29.62,29.55,29.52,10,4,0,10,4,18,0.00,8,Fog-Rain,232
2012-12-17,39,35,31,38,34,30,96,87,69,29.69,29.65,29.62,10,9,4,8,5,,0.00,7,,277
2012-12-18,40,36,32,33,29,24,96,81,55,29.74,29.69,29.65,10,8,2,7,3,,0.00,6,Snow,249
2012-12-19,38,35,32,34,31,28,99,87,71,30.07,29.95,29.73,10,8,3,6,2,,0.00,8,,254
2012-12-20,38,36,33,37,34,30,97,93,80,30.01,29.45,29.10,10,4,0,21,8,31,0.00,8,Rain-Snow,101
2012-12-21,34,32,30,33,26,23,96,81,69,29.95,29.57,29.14,10,5,1,29,17,40,0.00,8,Snow,338
2012-12-22,33,26,18,23,20,17,94,72,55,30.05,29.99,29.90,10,10,10,18,12,31,0.00,4,,297
2012-12-23,30,22,15,25,18,13,94,79,63,30.02,29.93,29.84,10,10,7,14,4,17,0.00,6,,330
2012-12-24,28,23,18,20,17,13,84,75,67,30.02,29.94,29.87,10,10,10,9,2,,0.00,6,,32
2012-12-25,30,23,16,22,18,13,93,74,51,30.33,30.22,30.02,10,10,10,8,3,,0.00,6,,17
2012-12-26,27,24,22,19,16,13,83,70,66,30.29,30.10,30.01,10,9,3,18,9,25,0.00,7,Snow,34
2012-12-27,31,23,14,18,16,11,88,72,51,30.14,30.08,30.00,10,10,7,10,7,,0.00,4,Snow,352
2012-12-28,29,20,10,23,17,7,90,78,65,30.12,30.04,29.91,10,9,2,7,1,,0.00,7,Snow,170
2012-12-29,29,22,14,23,19,12,94,82,65,30.03,29.90,29.85,10,8,2,9,2,,0.00,7,Snow,358
2012-12-30,28,25,22,26,20,18,94,77,66,30.20,30.13,30.03,10,10,7,13,6,20,0.00,8,Snow,242
2012-12-31,34,28,23,27,22,13,92,75,61,30.03,29.93,29.87,10,8,5,17,9,24,0.00,8,Snow,276